Time;durP1;ratioP1;P1;durP2;ratioP2;P2;SDS_P1;SDS_P2;PMS_P1;PMS_P2;Temp;Humidity;BMP_temperature;BMP_pressure;BME280_temperature;BME280_humidity;BME280_pressure;Samples;Min_cycle;Max_cycle;Signal;HPM_P1;HPM_P2
2023/12/06 00:02:08;;;;;;;103.90;52.10;;;;;;;-1.79;66.74;98862.89;234330;216;149130;-65
2023/12/06 00:07:11;;;;;;;97.00;50.80;;;;;;;-1.83;66.87;98872.85;233946;214;139535;-62
2023/12/06 00:12:14;;;;;;;95.10;49.30;;;;;;;-1.87;66.97;98877.42;234328;215;138725;-60
2023/12/06 00:17:17;;;;;;;100.60;52.20;;;;;;;-1.91;67.03;98877.30;234249;215;149531;-60
2023/12/06 00:22:21;;;;;;;103.60;51.70;;;;;;;-1.94;66.93;98870.06;234251;215;138931;-61
2023/12/06 00:27:24;;;;;;;97.40;50.10;;;;;;;-1.90;67.22;98864.62;234300;215;138379;-62
2023/12/06 00:32:28;;;;;;;103.60;51.60;;;;;;;-1.90;67.36;98860.96;234218;215;149497;-57
2023/12/06 00:37:31;;;;;;;109.30;53.90;;;;;;;-1.89;67.47;98858.36;234098;215;139995;-60
2023/12/06 00:42:34;;;;;;;116.80;58.30;;;;;;;-1.86;67.62;98860.05;234319;215;137797;-61
2023/12/06 00:47:38;;;;;;;108.90;56.30;;;;;;;-1.79;67.45;98854.02;234471;213;149199;-61
2023/12/06 00:52:41;;;;;;;107.80;56.80;;;;;;;-1.73;66.98;98855.48;233784;214;139589;-59
2023/12/06 00:57:44;;;;;;;111.00;56.40;;;;;;;-1.64;66.50;98853.27;234344;215;137288;-58
2023/12/06 01:02:47;;;;;;;110.00;57.10;;;;;;;-1.61;66.12;98864.00;234295;215;149420;-62
2023/12/06 01:07:50;;;;;;;114.40;57.70;;;;;;;-1.64;65.96;98863.35;234226;214;138842;-60
2023/12/06 01:12:54;;;;;;;111.00;56.40;;;;;;;-1.71;65.78;98857.02;234232;216;137247;-63
2023/12/06 01:17:57;;;;;;;117.90;58.30;;;;;;;-1.80;65.68;98855.26;234467;214;150764;-60
2023/12/06 01:23:00;;;;;;;115.20;58.30;;;;;;;-1.88;65.91;98850.50;234190;215;139886;-59
2023/12/06 01:28:03;;;;;;;102.80;54.90;;;;;;;-1.95;65.87;98852.69;233563;215;137893;-58
2023/12/06 01:33:07;;;;;;;106.30;54.00;;;;;;;-2.02;66.03;98858.89;234288;215;149849;-62
2023/12/06 01:38:10;;;;;;;101.80;52.80;;;;;;;-2.10;66.10;98864.21;234268;215;140116;-60
2023/12/06 01:43:14;;;;;;;106.10;52.90;;;;;;;-2.16;66.36;98860.45;234254;215;137451;-60
2023/12/06 01:48:18;;;;;;;104.30;53.50;;;;;;;-2.16;66.57;98863.25;234291;215;151513;-60
2023/12/06 01:53:22;;;;;;;101.90;51.80;;;;;;;-2.18;66.74;98863.61;234333;215;139751;-61
2023/12/06 01:58:28;;;;;;;105.00;52.60;;;;;;;-2.13;66.99;98860.44;234291;215;139800;-58
2023/12/06 02:03:33;;;;;;;109.30;55.40;;;;;;;-2.13;66.96;98862.50;234273;214;149782;-64
2023/12/06 02:08:41;;;;;;;97.50;52.20;;;;;;;-2.13;67.00;98865.46;234208;215;139587;-60
2023/12/06 02:13:45;;;;;;;100.10;52.20;;;;;;;-2.12;67.14;98868.93;234287;209;137286;-57
2023/12/06 02:18:48;;;;;;;98.60;52.60;;;;;;;-2.11;67.23;98871.34;233823;214;150433;-63
2023/12/06 02:23:55;;;;;;;109.30;53.20;;;;;;;-2.09;67.15;98867.31;234234;215;138796;-61
2023/12/06 02:28:58;;;;;;;102.80;54.00;;;;;;;-2.13;67.02;98869.13;234209;215;138825;-61
2023/12/06 02:34:06;;;;;;;109.40;58.70;;;;;;;-2.16;67.26;98874.55;233970;215;286974;-63
2023/12/06 02:39:09;;;;;;;104.40;53.20;;;;;;;-2.08;67.28;98876.35;234224;214;138871;-61
2023/12/06 02:44:13;;;;;;;106.50;55.30;;;;;;;-2.13;67.21;98871.89;234357;215;138609;-61
2023/12/06 02:49:16;;;;;;;107.20;53.70;;;;;;;-2.11;67.38;98869.44;234132;215;149198;-59
2023/12/06 02:54:19;;;;;;;104.20;53.30;;;;;;;-2.11;67.26;98862.83;234359;208;139277;-59
2023/12/06 02:59:23;;;;;;;102.70;55.30;;;;;;;-2.05;67.10;98863.09;234318;215;138566;-61
2023/12/06 03:04:26;;;;;;;112.80;56.50;;;;;;;-2.03;67.09;98857.69;234195;208;149158;-62
2023/12/06 03:09:29;;;;;;;112.70;55.70;;;;;;;-2.05;66.94;98847.45;233719;216;139928;-61
2023/12/06 03:14:33;;;;;;;105.90;54.80;;;;;;;-2.08;66.69;98849.41;234229;214;138281;-59
2023/12/06 03:19:36;;;;;;;110.00;56.90;;;;;;;-2.13;66.71;98849.48;234284;215;149013;-60
2023/12/06 03:24:39;;;;;;;120.60;58.20;;;;;;;-2.10;66.65;98862.30;234178;215;138889;-61
2023/12/06 03:29:43;;;;;;;104.00;53.10;;;;;;;-2.09;66.60;98857.59;233915;214;137989;-59
2023/12/06 03:34:46;;;;;;;112.10;56.70;;;;;;;-2.09;66.56;98862.11;233539;214;149307;-62
2023/12/06 03:39:49;;;;;;;109.10;56.00;;;;;;;-2.09;66.51;98865.06;234207;215;139338;-61
2023/12/06 03:44:53;;;;;;;96.90;51.50;;;;;;;-2.08;66.55;98863.32;234321;215;137388;-60
2023/12/06 03:49:56;;;;;;;92.90;49.80;;;;;;;-2.06;66.59;98869.20;234163;212;150008;-61
2023/12/06 03:54:59;;;;;;;91.50;49.60;;;;;;;-2.03;66.43;98872.28;234248;212;138598;-58
2023/12/06 04:00:04;;;;;;;89.50;47.50;;;;;;;-2.00;66.56;98872.23;234212;213;138566;-60
2023/12/06 04:05:13;;;;;;;93.20;48.00;;;;;;;-1.95;66.46;98870.95;233818;215;149612;-56
2023/12/06 04:10:17;;;;;;;90.70;48.20;;;;;;;-2.00;66.21;98868.05;233690;215;138750;-62
2023/12/06 04:15:20;;;;;;;91.70;47.50;;;;;;;-2.04;66.21;98867.41;234322;215;137962;-60
2023/12/06 04:20:23;;;;;;;92.50;48.70;;;;;;;-2.07;66.05;98869.20;234226;215;149971;-60
2023/12/06 04:25:27;;;;;;;359.60;244.30;;;;;;;-1.99;68.59;98870.13;234237;214;138741;-60
2023/12/06 04:30:30;;;;;;;172.70;98.70;;;;;;;-1.64;67.27;98869.45;234075;215;138737;-60
2023/12/06 04:35:33;;;;;;;95.70;50.80;;;;;;;-1.68;66.71;98867.59;234285;215;150322;-56
2023/12/06 04:40:36;;;;;;;89.50;48.40;;;;;;;-1.74;65.93;98871.33;234123;216;138713;-59
2023/12/06 04:45:39;;;;;;;90.70;48.20;;;;;;;-1.85;65.77;98881.41;234260;216;139190;-59
2023/12/06 04:50:42;;;;;;;85.50;46.50;;;;;;;-1.93;65.85;98879.44;234138;213;149383;-55
2023/12/06 04:55:46;;;;;;;79.20;43.90;;;;;;;-2.00;65.97;98876.06;234164;214;140228;-61
2023/12/06 05:00:50;;;;;;;84.70;46.00;;;;;;;-2.05;66.11;98874.38;234316;215;137500;-61
2023/12/06 05:05:54;;;;;;;91.10;46.60;;;;;;;-2.00;66.22;98874.67;234385;215;149466;-61
2023/12/06 05:10:57;;;;;;;87.10;46.90;;;;;;;-2.00;66.16;98876.77;234275;215;138142;-60
2023/12/06 05:16:00;;;;;;;261.30;159.20;;;;;;;-1.98;66.86;98875.50;234255;215;137855;-56
2023/12/06 05:21:03;;;;;;;102.60;53.90;;;;;;;-1.81;66.59;98868.48;234231;216;149477;-59
2023/12/06 05:26:07;;;;;;;98.70;51.20;;;;;;;-1.82;66.06;98873.54;233976;214;139764;-58
2023/12/06 05:31:10;;;;;;;90.80;50.40;;;;;;;-1.85;66.04;98886.97;233536;214;137487;-61
2023/12/06 05:36:13;;;;;;;93.20;49.30;;;;;;;-1.87;65.96;98888.73;234173;214;149689;-59
2023/12/06 05:41:17;;;;;;;89.30;47.50;;;;;;;-1.91;66.01;98884.80;233896;214;138803;-62
2023/12/06 05:46:20;;;;;;;90.10;48.20;;;;;;;-1.95;66.30;98889.89;233960;216;137205;-60
2023/12/06 05:51:24;;;;;;;85.20;46.40;;;;;;;-1.95;66.37;98889.54;234268;214;150027;-60
2023/12/06 05:56:27;;;;;;;88.80;47.30;;;;;;;-1.93;66.49;98887.79;234172;215;138888;-59
2023/12/06 06:01:30;;;;;;;88.30;45.70;;;;;;;-1.94;66.53;98877.52;234187;209;137962;-62
2023/12/06 06:06:34;;;;;;;85.40;46.40;;;;;;;-1.88;66.79;98884.05;233732;215;150026;-59
2023/12/06 06:11:38;;;;;;;90.70;47.40;;;;;;;-1.82;66.75;98884.13;234287;214;138788;-62
2023/12/06 06:16:41;;;;;;;88.20;47.30;;;;;;;-1.78;66.69;98887.90;234273;214;137359;-61
2023/12/06 06:21:44;;;;;;;88.80;47.60;;;;;;;-1.78;66.76;98894.70;234230;215;149475;-61
2023/12/06 06:26:48;;;;;;;94.10;48.60;;;;;;;-1.76;66.61;98897.27;234201;215;138989;-62
2023/12/06 06:31:51;;;;;;;89.30;46.50;;;;;;;-1.71;66.63;98895.97;234264;214;137937;-60
2023/12/06 06:36:54;;;;;;;90.30;46.70;;;;;;;-1.64;66.51;98893.45;234085;215;149947;-61
2023/12/06 06:41:58;;;;;;;88.60;48.20;;;;;;;-1.64;66.44;98896.39;234415;208;141138;-57
2023/12/06 06:47:01;;;;;;;87.80;47.20;;;;;;;-1.62;66.34;98904.55;233962;213;249728;-63
2023/12/06 06:52:04;;;;;;;89.30;47.50;;;;;;;-1.58;66.47;98908.48;234368;215;149111;-60
2023/12/06 06:57:08;;;;;;;96.70;48.50;;;;;;;-1.55;66.27;98910.00;234178;215;139629;-62
2023/12/06 07:02:11;;;;;;;87.70;47.70;;;;;;;-1.54;66.17;98913.29;233915;214;137492;-64
2023/12/06 07:07:14;;;;;;;94.10;48.70;;;;;;;-1.57;66.12;98918.89;234262;213;149243;-66
2023/12/06 07:12:20;;;;;;;97.80;49.30;;;;;;;-1.57;66.33;98918.38;234382;216;140228;-65
2023/12/06 07:17:23;;;;;;;96.50;50.90;;;;;;;-1.49;66.43;98917.73;234034;214;137552;-64
2023/12/06 07:22:27;;;;;;;94.60;50.30;;;;;;;-1.41;66.11;98914.66;234043;214;150471;-62
2023/12/06 07:27:31;;;;;;;94.10;49.00;;;;;;;-1.42;66.02;98914.50;234201;215;140057;-61
2023/12/06 07:32:34;;;;;;;88.20;48.10;;;;;;;-1.42;66.24;98913.46;234161;214;138684;-65
2023/12/06 07:37:51;;;;;;;90.90;50.10;;;;;;;-1.40;66.12;98913.42;234191;214;150017;-66
2023/12/06 07:42:55;;;;;;;90.90;49.50;;;;;;;-1.38;65.90;98904.88;234230;216;141196;-67
2023/12/06 07:47:58;;;;;;;90.10;49.40;;;;;;;-1.39;65.82;98902.79;234438;214;138596;-66
2023/12/06 07:53:01;;;;;;;93.70;51.10;;;;;;;-1.38;65.71;98904.70;234088;215;149977;-64
2023/12/06 07:58:04;;;;;;;105.40;54.10;;;;;;;-1.39;65.78;98894.43;234279;216;138846;-67
2023/12/06 08:03:08;;;;;;;92.60;51.00;;;;;;;-1.37;65.50;98894.58;234175;215;138477;-67
2023/12/06 08:08:13;;;;;;;729.80;466.90;;;;;;;-1.35;65.74;98894.02;233974;214;149889;-65
2023/12/06 08:13:16;;;;;;;170.10;82.30;;;;;;;-1.21;65.83;98896.05;234234;214;139407;-66
2023/12/06 08:18:19;;;;;;;118.60;57.20;;;;;;;-1.18;65.17;98897.56;234356;215;138608;-69
2023/12/06 08:23:23;;;;;;;97.80;53.30;;;;;;;-1.21;64.91;98898.84;234303;208;150542;-67
2023/12/06 08:28:27;;;;;;;98.60;53.10;;;;;;;-1.22;64.83;98904.59;234189;214;139566;-66
2023/12/06 08:33:30;;;;;;;103.40;54.90;;;;;;;-1.17;64.80;98906.95;234189;216;137506;-68
2023/12/06 08:38:33;;;;;;;105.30;54.90;;;;;;;-1.10;64.59;98908.73;233672;214;149320;-63
2023/12/06 08:43:37;;;;;;;108.30;57.00;;;;;;;-1.06;64.57;98913.02;233573;214;138759;-63
2023/12/06 08:48:41;;;;;;;101.60;55.60;;;;;;;-1.03;64.57;98917.16;233825;214;138614;-65
2023/12/06 08:53:44;;;;;;;118.80;63.30;;;;;;;-0.54;68.45;98912.05;234198;214;149931;-63
2023/12/06 08:58:47;;;;;;;109.10;57.10;;;;;;;-0.26;64.02;98918.66;234294;212;139552;-70
2023/12/06 09:03:51;;;;;;;104.40;56.30;;;;;;;-0.39;63.48;98923.27;234195;213;138113;-68
2023/12/06 09:08:54;;;;;;;104.30;57.00;;;;;;;-0.43;63.40;98933.84;234267;214;150741;-66
2023/12/06 09:13:57;;;;;;;100.10;53.40;;;;;;;-0.43;63.31;98937.14;234207;213;139637;-66
2023/12/06 09:19:01;;;;;;;101.30;55.60;;;;;;;-0.41;62.92;98940.05;234105;215;246542;-65
2023/12/06 09:24:04;;;;;;;104.80;53.40;;;;;;;-0.43;62.58;98932.94;234096;213;149611;-66
2023/12/06 09:29:09;;;;;;;99.90;55.70;;;;;;;-0.49;62.08;98933.41;234197;209;145744;-69
2023/12/06 09:34:12;;;;;;;106.60;56.70;;;;;;;-0.58;62.07;98934.27;234063;213;137520;-64
2023/12/06 09:39:24;;;;;;;110.70;60.40;;;;;;;-0.66;61.94;98930.59;234149;215;149394;-66
2023/12/06 09:44:28;;;;;;;112.30;59.90;;;;;;;-0.73;61.72;98925.14;233725;209;138896;-66
2023/12/06 09:49:31;;;;;;;110.80;59.70;;;;;;;-0.83;61.70;98926.73;234213;209;138762;-65
2023/12/06 09:54:38;;;;;;;580.00;362.10;;;;;;;-0.89;61.97;98922.48;234161;213;150946;-62
2023/12/06 09:59:42;;;;;;;133.50;71.40;;;;;;;-0.80;62.55;98921.09;234342;213;139277;-61
2023/12/06 10:04:45;;;;;;;116.20;62.80;;;;;;;-0.75;61.95;98917.18;234268;213;137866;-64
2023/12/06 10:09:51;;;;;;;112.90;59.30;;;;;;;-0.78;62.08;98909.57;234226;214;149475;-57
2023/12/06 10:15:00;;;;;;;114.90;63.50;;;;;;;-0.78;61.93;98909.73;233927;214;138965;-60
2023/12/06 10:20:04;;;;;;;115.70;60.50;;;;;;;-0.77;62.07;98904.32;233922;217;142881;-60
2023/12/06 10:25:08;;;;;;;117.20;62.60;;;;;;;-0.77;62.23;98910.41;234116;216;149280;-60
2023/12/06 10:30:22;;;;;;;114.40;59.50;;;;;;;-0.70;62.23;98909.77;234266;217;140016;-59
2023/12/06 10:35:25;;;;;;;393.10;225.40;;;;;;;-0.65;62.46;98906.55;234137;217;138218;-60
2023/12/06 10:40:29;;;;;;;133.30;69.10;;;;;;;-0.41;63.06;98903.27;234049;217;149200;-61
2023/12/06 10:45:33;;;;;;;113.60;61.40;;;;;;;-0.36;62.37;98902.67;233548;214;139093;-57
2023/12/06 10:50:38;;;;;;;109.70;57.60;;;;;;;-0.33;62.32;98894.75;234158;215;137616;-55
2023/12/06 10:55:42;;;;;;;114.20;60.20;;;;;;;-0.28;62.37;98892.20;234255;213;149307;-56
2023/12/06 11:00:46;;;;;;;107.70;62.80;;;;;;;-0.25;62.32;98883.77;234112;214;139425;-57
2023/12/06 11:05:55;;;;;;;115.00;60.70;;;;;;;-0.25;62.13;98880.46;234266;214;138133;-57
2023/12/06 11:11:18;;;;;;;109.80;60.80;;;;;;;-0.20;62.38;98872.17;233757;214;149211;-55
2023/12/06 11:16:42;;;;;;;104.20;59.30;;;;;;;-0.17;62.27;98871.23;234185;209;139740;-54
2023/12/06 11:21:45;;;;;;;113.00;60.80;;;;;;;-0.15;62.23;98872.42;234227;213;137823;-55
2023/12/06 11:26:50;;;;;;;102.00;55.70;;;;;;;-0.16;62.38;98868.27;234122;215;149495;-56
2023/12/06 11:31:58;;;;;;;103.30;55.10;;;;;;;-0.14;62.30;98865.06;234088;209;139783;-57
2023/12/06 11:37:06;;;;;;;98.00;55.90;;;;;;;-0.17;62.29;98867.04;233860;214;137808;-56
2023/12/06 11:42:16;;;;;;;100.10;55.50;;;;;;;-0.21;62.36;98868.86;234313;210;150548;-57
2023/12/06 11:47:25;;;;;;;103.30;56.80;;;;;;;-0.26;62.41;98865.66;234128;210;138860;-55
2023/12/06 11:52:29;;;;;;;98.90;55.00;;;;;;;-0.27;62.37;98868.48;234257;213;137067;-58
2023/12/06 11:57:33;;;;;;;103.80;55.10;;;;;;;-0.28;62.75;98870.23;234155;215;149306;-56
2023/12/06 12:02:37;;;;;;;104.50;56.60;;;;;;;-0.25;62.79;98871.40;234105;214;138890;-58
2023/12/06 12:07:42;;;;;;;95.00;54.70;;;;;;;-0.21;62.73;98869.06;234068;210;138434;-56
2023/12/06 12:12:48;;;;;;;97.10;54.30;;;;;;;-0.17;62.67;98868.27;233676;215;149224;-56
2023/12/06 12:17:52;;;;;;;99.40;53.90;;;;;;;-0.15;62.88;98866.83;234345;215;138355;-58
2023/12/06 12:22:56;;;;;;;97.50;54.50;;;;;;;-0.12;62.81;98865.20;234225;216;137526;-58
2023/12/06 12:27:59;;;;;;;98.00;54.70;;;;;;;-0.13;62.84;98865.91;234294;216;149488;-56
2023/12/06 12:33:03;;;;;;;101.60;54.90;;;;;;;-0.15;62.81;98863.34;233637;214;150808;-59
2023/12/06 12:38:07;;;;;;;99.90;54.10;;;;;;;-0.15;62.60;98862.65;233885;216;154634;-57
2023/12/06 12:43:11;;;;;;;103.40;55.60;;;;;;;-0.17;62.71;98868.10;234129;216;150460;-58
2023/12/06 12:48:15;;;;;;;100.40;57.50;;;;;;;-0.16;62.78;98865.83;234225;215;140457;-57
2023/12/06 12:53:19;;;;;;;99.70;54.40;;;;;;;-0.19;62.66;98864.81;234229;215;260604;-57
2023/12/06 12:58:22;;;;;;;98.60;54.50;;;;;;;-0.18;62.96;98866.02;234165;217;149388;-57
2023/12/06 13:03:28;;;;;;;101.20;52.70;;;;;;;-0.19;63.01;98860.45;234120;217;139448;-57
2023/12/06 13:08:32;;;;;;;95.30;51.10;;;;;;;-0.19;63.09;98861.69;234156;210;138213;-57
2023/12/06 13:13:35;;;;;;;96.00;51.50;;;;;;;-0.24;63.06;98863.89;234209;216;150066;-56
2023/12/06 13:18:38;;;;;;;100.60;52.30;;;;;;;-0.26;62.99;98856.77;234146;217;138993;-56
2023/12/06 13:23:41;;;;;;;91.40;50.40;;;;;;;-0.25;63.11;98856.41;234334;216;137213;-56
2023/12/06 13:28:45;;;;;;;90.20;49.50;;;;;;;-0.28;63.03;98857.34;234211;210;149231;-56
2023/12/06 13:33:48;;;;;;;98.10;51.50;;;;;;;-0.31;63.19;98860.89;234241;217;138674;-57
2023/12/06 13:38:51;;;;;;;94.60;51.40;;;;;;;-0.35;63.20;98867.79;234034;214;137843;-55
2023/12/06 13:43:55;;;;;;;94.10;48.40;;;;;;;-0.39;63.37;98869.60;234214;215;149098;-54
2023/12/06 13:48:58;;;;;;;95.30;50.30;;;;;;;-0.41;63.43;98872.77;234204;209;139265;-57
2023/12/06 13:54:01;;;;;;;96.30;51.80;;;;;;;-0.39;63.43;98872.39;234197;216;249631;-60
2023/12/06 13:59:05;;;;;;;91.70;49.00;;;;;;;-0.39;63.50;98879.20;234213;213;149474;-56
2023/12/06 14:04:08;;;;;;;95.00;49.60;;;;;;;-0.40;63.46;98883.59;234025;215;140263;-56
2023/12/06 14:09:12;;;;;;;93.60;49.40;;;;;;;-0.46;63.67;98890.13;233400;209;137598;-57
2023/12/06 14:14:15;;;;;;;91.00;51.70;;;;;;;-0.51;63.71;98893.02;233722;214;151180;-57
2023/12/06 14:19:18;;;;;;;94.60;50.60;;;;;;;-0.56;64.06;98892.25;234174;215;139034;-58
2023/12/06 14:24:22;;;;;;;88.10;49.00;;;;;;;-0.55;64.36;98900.94;234279;215;136646;-56
2023/12/06 14:29:25;;;;;;;96.20;51.80;;;;;;;-0.58;64.33;98909.88;234227;214;149134;-57
2023/12/06 14:34:29;;;;;;;103.00;51.50;;;;;;;-0.60;64.42;98913.59;234216;208;138819;-57
2023/12/06 14:39:32;;;;;;;92.70;48.30;;;;;;;-0.63;64.58;98928.45;234062;209;137449;-58
2023/12/06 14:44:35;;;;;;;97.00;48.90;;;;;;;-0.62;64.58;98927.02;233734;214;150161;-56
2023/12/06 14:49:38;;;;;;;96.10;49.50;;;;;;;-0.64;64.60;98924.29;233732;214;139363;-57
2023/12/06 14:54:42;;;;;;;93.60;49.90;;;;;;;-0.66;64.73;98913.52;234177;212;137778;-56
2023/12/06 14:59:45;;;;;;;92.10;50.00;;;;;;;-0.71;64.89;98913.60;234048;214;150022;-57
2023/12/06 15:04:48;;;;;;;93.10;50.40;;;;;;;-0.73;65.14;98921.48;234182;215;140138;-56
2023/12/06 15:09:52;;;;;;;87.90;47.60;;;;;;;-0.72;64.95;98922.34;234282;213;138125;-56
2023/12/06 15:14:55;;;;;;;87.50;48.00;;;;;;;-0.73;65.23;98919.74;234125;213;149325;-55
2023/12/06 15:19:58;;;;;;;92.40;48.60;;;;;;;-0.73;65.28;98918.17;234199;209;139171;-57
2023/12/06 15:25:03;;;;;;;97.60;49.70;;;;;;;-0.74;65.51;98920.98;234159;216;138066;-55
2023/12/06 15:30:07;;;;;;;93.40;48.50;;;;;;;-0.76;65.63;98921.88;234040;209;150023;-57
2023/12/06 15:35:10;;;;;;;89.70;47.80;;;;;;;-0.74;65.91;98916.45;234093;213;139015;-56
2023/12/06 15:40:14;;;;;;;92.40;49.50;;;;;;;-0.68;65.93;98914.25;234252;209;137767;-56
2023/12/06 15:45:29;;;;;;;85.60;48.90;;;;;;;-0.66;65.81;98911.27;234269;213;150496;-56
2023/12/06 15:50:34;;;;;;;90.90;48.30;;;;;;;-0.67;65.93;98915.29;233871;214;139756;-57
2023/12/06 15:55:37;;;;;;;96.90;51.00;;;;;;;-0.68;66.12;98921.05;233974;214;138063;-57
2023/12/06 16:00:40;;;;;;;89.60;49.80;;;;;;;-0.67;66.39;98924.18;233592;209;150283;-56
2023/12/06 16:05:44;;;;;;;88.60;48.70;;;;;;;-0.67;66.44;98926.45;233707;209;140634;-55
2023/12/06 16:10:47;;;;;;;96.30;51.10;;;;;;;-0.65;66.56;98924.30;233616;209;140175;-56
2023/12/06 16:16:08;;;;;;;91.50;49.40;;;;;;;-0.66;66.63;98923.61;234319;214;149455;-58
2023/12/06 16:21:11;;;;;;;92.50;51.10;;;;;;;-0.65;66.76;98924.66;233935;209;138849;-56
2023/12/06 16:26:14;;;;;;;99.80;50.90;;;;;;;-0.63;66.83;98922.02;233843;209;138889;-54
2023/12/06 16:31:18;;;;;;;92.40;49.50;;;;;;;-0.65;66.83;98925.86;234260;215;150879;-57
2023/12/06 16:36:21;;;;;;;299.90;155.90;;;;;;;-0.63;67.24;98933.32;234199;214;138627;-53
2023/12/06 16:41:24;;;;;;;105.90;53.90;;;;;;;-0.46;67.52;98934.92;234280;215;138573;-55
2023/12/06 16:46:27;;;;;;;98.70;51.20;;;;;;;-0.45;66.71;98941.52;234193;215;150077;-56
2023/12/06 16:51:31;;;;;;;96.60;52.40;;;;;;;-0.41;66.62;98942.83;234219;215;139278;-56
2023/12/06 16:56:35;;;;;;;98.20;51.10;;;;;;;-0.35;66.49;98942.55;234172;213;137351;-52
2023/12/06 17:01:38;;;;;;;96.00;52.90;;;;;;;-0.29;66.46;98944.85;234184;214;150826;-56
2023/12/06 17:06:43;;;;;;;95.40;53.20;;;;;;;-0.30;66.48;98942.79;234120;209;139297;-57
2023/12/06 17:11:46;;;;;;;95.20;51.50;;;;;;;-0.31;66.61;98948.56;234354;209;137246;-56
2023/12/06 17:16:51;;;;;;;98.30;50.90;;;;;;;-0.34;66.59;98952.28;234224;213;149275;-55
2023/12/06 17:21:55;;;;;;;96.00;51.70;;;;;;;-0.36;66.82;98961.56;234136;208;138868;-57
2023/12/06 17:26:58;;;;;;;95.90;51.60;;;;;;;-0.35;66.82;98959.09;234100;214;137033;-55
2023/12/06 17:32:02;;;;;;;96.70;49.60;;;;;;;-0.34;67.08;98955.95;234208;214;151720;-57
2023/12/06 17:37:06;;;;;;;94.90;49.90;;;;;;;-0.38;67.20;98962.13;234046;213;139434;-55
2023/12/06 17:42:13;;;;;;;95.80;49.90;;;;;;;-0.40;67.28;98963.55;233872;209;138510;-56
2023/12/06 17:47:17;;;;;;;88.90;48.70;;;;;;;-0.41;67.69;98965.48;234209;209;149969;-55
2023/12/06 17:52:20;;;;;;;93.00;49.40;;;;;;;-0.40;67.73;98968.08;234130;214;139535;-55
2023/12/06 17:57:24;;;;;;;86.80;47.80;;;;;;;-0.35;67.85;98967.29;234265;214;137852;-57
2023/12/06 18:02:29;;;;;;;92.70;48.20;;;;;;;-0.34;67.85;98972.85;234057;214;150672;-58
2023/12/06 18:07:35;;;;;;;92.70;48.70;;;;;;;-0.31;67.93;98980.98;234192;209;138864;-57
2023/12/06 18:12:39;;;;;;;89.50;47.00;;;;;;;-0.29;68.02;98982.16;234102;214;137116;-57
2023/12/06 18:17:42;;;;;;;90.70;46.90;;;;;;;-0.30;68.12;98980.61;234026;208;149538;-55
2023/12/06 18:22:45;;;;;;;87.60;46.70;;;;;;;-0.27;68.18;98978.98;234151;214;139720;-59
2023/12/06 18:27:49;;;;;;;84.60;45.70;;;;;;;-0.24;68.23;98971.27;234211;214;137055;-55
2023/12/06 18:32:53;;;;;;;85.50;45.40;;;;;;;-0.21;68.26;98958.66;233676;209;149222;-55
2023/12/06 18:37:56;;;;;;;85.30;44.30;;;;;;;-0.18;68.30;98964.36;234169;209;139331;-53
2023/12/06 18:42:59;;;;;;;102.10;51.20;;;;;;;-0.08;69.28;98964.67;234240;209;138678;-58
2023/12/06 18:48:03;;;;;;;96.10;48.30;;;;;;;0.01;68.25;98967.27;234331;214;150947;-57
2023/12/06 18:53:07;;;;;;;83.90;48.10;;;;;;;0.06;68.16;98967.35;234189;214;138918;-57
2023/12/06 18:58:10;;;;;;;86.80;48.10;;;;;;;0.12;68.08;98960.09;234196;213;138412;-60
2023/12/06 19:03:13;;;;;;;95.30;48.20;;;;;;;0.15;68.07;98961.06;234178;214;150228;-54
2023/12/06 19:08:17;;;;;;;87.60;46.40;;;;;;;0.16;67.87;98964.86;234222;209;139463;-56
2023/12/06 19:13:21;;;;;;;85.40;46.40;;;;;;;0.15;67.98;98967.67;234189;214;137875;-54
2023/12/06 19:18:24;;;;;;;85.10;45.30;;;;;;;0.13;67.93;98972.06;234326;214;149611;-58
2023/12/06 19:23:28;;;;;;;83.50;45.60;;;;;;;0.12;67.95;98986.23;234031;213;138592;-59
2023/12/06 19:28:31;;;;;;;91.70;48.50;;;;;;;0.20;68.96;98989.56;234210;209;136932;-58
2023/12/06 19:33:36;;;;;;;74.00;41.30;;;;;;;0.30;68.15;98991.97;234049;214;150472;-58
2023/12/06 19:38:40;;;;;;;70.20;38.80;;;;;;;0.28;67.76;98988.71;234071;209;139632;-57
2023/12/06 19:43:44;;;;;;;71.70;37.80;;;;;;;0.21;67.74;98990.74;234150;213;137276;-57
2023/12/06 19:48:48;;;;;;;287.40;175.80;;;;;;;0.25;68.79;98996.77;234224;214;150552;-58
2023/12/06 19:53:51;;;;;;;80.10;41.40;;;;;;;0.52;69.17;98997.07;234308;214;140594;-60
2023/12/06 19:58:55;;;;;;;74.80;39.50;;;;;;;0.46;66.97;98994.92;234092;212;230583;-57
2023/12/06 20:04:00;;;;;;;;;;;;;;;0.33;66.95;99002.36;233998;214;286562;-57
2023/12/06 20:09:04;;;;;;;70.40;36.90;;;;;;;0.21;67.10;98997.54;233479;209;138805;-55
2023/12/06 20:14:07;;;;;;;72.50;37.30;;;;;;;0.15;67.31;99002.92;234158;214;137116;-55
2023/12/06 20:19:11;;;;;;;67.40;36.70;;;;;;;0.11;67.31;99010.34;234219;214;150536;-56
2023/12/06 20:24:16;;;;;;;170.90;104.40;;;;;;;0.09;67.34;99012.45;234280;214;139643;-54
2023/12/06 20:29:22;;;;;;;88.60;49.10;;;;;;;0.29;68.72;99006.11;234221;216;142120;-56
2023/12/06 20:34:25;;;;;;;;;;;;;;;0.43;67.39;98997.61;234052;214;150616;-55
2023/12/06 20:39:30;;;;;;;70.90;36.10;;;;;;;0.30;67.18;99004.34;234381;214;244974;-55
2023/12/06 20:44:33;;;;;;;72.10;36.30;;;;;;;0.19;67.25;99009.10;234262;210;137471;-56
2023/12/06 20:49:36;;;;;;;74.50;36.40;;;;;;;0.13;67.38;99010.11;234207;217;149580;-56
2023/12/06 20:54:40;;;;;;;74.80;36.40;;;;;;;0.11;67.63;99012.44;234127;213;139877;-56
2023/12/06 20:59:43;;;;;;;70.10;36.00;;;;;;;0.11;67.67;99012.77;234071;214;138492;-57
2023/12/06 21:04:46;;;;;;;78.30;37.20;;;;;;;0.06;67.89;99013.91;234237;216;149679;-55
2023/12/06 21:09:51;;;;;;;628.50;431.40;;;;;;;0.05;68.47;99021.27;233927;209;138781;-55
2023/12/06 21:14:54;;;;;;;83.70;40.70;;;;;;;0.24;70.03;99022.95;234227;216;137265;-58
2023/12/06 21:19:57;;;;;;;74.40;37.10;;;;;;;0.41;68.24;99024.87;234213;214;150869;-56
2023/12/06 21:25:01;;;;;;;79.50;37.80;;;;;;;0.42;68.01;99027.30;234180;214;275039;-57
2023/12/06 21:30:06;;;;;;;86.80;39.40;;;;;;;0.41;67.99;99025.58;234192;215;138480;-55
2023/12/06 21:35:09;;;;;;;77.10;38.10;;;;;;;0.39;68.13;99020.39;233586;216;149224;-58
2023/12/06 21:40:13;;;;;;;83.10;40.10;;;;;;;0.38;68.12;99029.84;233270;214;138843;-56
2023/12/06 21:45:17;;;;;;;77.10;36.00;;;;;;;0.37;68.36;99030.37;234198;214;137448;-57
2023/12/06 21:50:20;;;;;;;78.80;37.00;;;;;;;0.33;68.49;99025.94;234239;214;149400;-57
2023/12/06 21:55:23;;;;;;;83.20;37.00;;;;;;;0.28;68.76;99028.46;234210;214;139983;-57
2023/12/06 22:00:27;;;;;;;82.90;36.50;;;;;;;0.25;68.93;99031.84;234371;209;136834;-58
2023/12/06 22:05:30;;;;;;;83.30;36.60;;;;;;;0.22;69.22;99029.98;234224;212;149583;-58
2023/12/06 22:10:34;;;;;;;85.40;38.30;;;;;;;0.19;69.38;99028.98;233353;213;140578;-56
2023/12/06 22:15:38;;;;;;;83.10;36.80;;;;;;;0.18;69.67;99029.89;233761;214;139112;-57
2023/12/06 22:20:42;;;;;;;91.70;38.30;;;;;;;0.15;69.87;99030.83;234241;214;149109;-56
2023/12/06 22:25:46;;;;;;;89.00;38.10;;;;;;;0.11;70.23;99027.61;234134;216;139360;-56
2023/12/06 22:30:49;;;;;;;90.00;37.60;;;;;;;0.11;70.41;99029.70;234222;215;137178;-57
2023/12/06 22:35:53;;;;;;;90.50;40.00;;;;;;;0.11;70.54;99027.96;234094;216;149411;-60
2023/12/06 22:41:21;;;;;;;85.80;36.50;;;;;;;0.12;70.64;99030.38;233801;215;138935;-58
2023/12/06 22:46:24;;;;;;;86.60;37.80;;;;;;;0.13;70.82;99031.91;234319;213;138311;-57
2023/12/06 22:51:28;;;;;;;87.60;36.30;;;;;;;0.16;70.93;99028.54;234328;212;149302;-57
2023/12/06 22:56:31;;;;;;;96.20;39.60;;;;;;;0.28;70.96;99020.09;233835;214;138748;-56
2023/12/06 23:01:35;;;;;;;96.00;39.40;;;;;;;0.37;70.78;99021.30;234189;215;136809;-57